LFKFLFMD

Guest
Details From LFKF - Figari Sud Corse
To LFMD - Mandelieu
Flight Number -
Tags generated
Created
Modified
Stats Distance 155 nm / 288 km
Max Altitude 16,800 ft / 5,121 m
Waypoints 3
Social Downloads 1
Likes 0
Share VATSIM

Download

Looking for another format? Having issues loading an existing format? Contact us
Advertisement - Login to hide

Notes

Basic altitude profile: - Ascent Rate: 1000ft/min - Ascent Speed: 200kts - Cruise Altitude: 35000ft - Cruise Speed: 200kts - Descent Rate: 1000ft/min - Descent Speed: 200kts

Route

LFKF OMEDA LFMD

ID Type Via Altitude Latitude Longitude Leg Dist Tot Dist Heading (true) Name
O LFKF APT - 0 ft / 0 m 41.50206˚ 9.09696˚ - 0 nm - Figari Sud Corse
OMEDA FIX - 16,800 ft / 5,121 m 42.32889˚ 8.36194˚ 59 nm 59 nm 327° / 326° -
O LFMD APT - 0 ft / 0 m 43.54673˚ 6.95310˚ 95 nm 155 nm 320° / 319° Mandelieu

Altitude Profile

Advertisement - Login to hide

LFKF

Details ICAO LFKF (FSC)
Name Figari Sud Corse
Region France
Timezone Europe/Paris (UTC+2.0)
Stats Elevation 87 ft / 27 m (AMSL)
Location 41.502064° 9.096960°
Runways 1
Magnetic Variation 2.424° E

METAR

LFKF 220430Z AUTO 23006KT 9999 BKN084 14/14 Q1012 TEMPO RA BKN008

Decode

TAF

TAF LFKF 220200Z 2203/2303 24010KT 9999 SCT010 BKN030 TEMPO 2203/2206 8000 RA BKN008 BECMG 2211/2213 SCT030 TEMPO 2203/2218 24012G25KT

Decode

Departure Runways

ID Width Length Bearing (true) Bearing (mag) Surface Threshold Offset Overrun Length
05 148 ft / 45 m 8,131 ft / 2,478 m 47.42° 45.00° Asphalt 0 ft / 0 m 0 ft / 0 m
23 148 ft / 45 m 8,131 ft / 2,478 m 227.44° 225.02° Asphalt 0 ft / 0 m 0 ft / 0 m

LFMD

Details ICAO LFMD (CEQ)
Name Mandelieu
Region France
Timezone Europe/Paris (UTC+2.0)
Stats Elevation 12 ft / 4 m (AMSL)
Location 43.546734° 6.953097°
Runways 3
Magnetic Variation 2.005° E

METAR

LFMD 220430Z AUTO VRB02KT 9999 FEW039/// OVC082/// ///TCU 16/15 Q1012 TEMPO 4000 TSRA BKN030 SCT060CB

Decode

TAF

TAF LFMD 220200Z 2203/2303 01006KT 9999 SCT015 BKN080 TEMPO 2203/2212 SHRA BKN040 SCT060TCU PROB40 TEMPO 2203/2211 VRB10G20KT 4000 TSRA BKN030 SCT060CB BECMG 2209/2211 16010KT

Decode

Destination Runways

ID Width Length Bearing (true) Bearing (mag) Surface Threshold Offset Overrun Length
05 98 ft / 30 m 2,430 ft / 741 m 45.28° 43.27° Asphalt 295 ft / 90 m 0 ft / 0 m
17 148 ft / 45 m 5,287 ft / 1,611 m 172.58° 170.57° Asphalt 689 ft / 210 m 0 ft / 0 m
17L 164 ft / 50 m 1,872 ft / 571 m 172.60° 170.59° Grass 0 ft / 0 m 0 ft / 0 m
23 98 ft / 30 m 2,430 ft / 741 m 225.28° 223.27° Asphalt 98 ft / 30 m 0 ft / 0 m
35 148 ft / 45 m 5,287 ft / 1,611 m 352.58° 350.57° Asphalt 1,148 ft / 350 m 0 ft / 0 m
35R 164 ft / 50 m 1,872 ft / 571 m 352.60° 350.59° Grass 0 ft / 0 m 0 ft / 0 m

Approach Navaids

Runway Type Ident Frequency Range Bearing (true) Bearing (mag) Slope Elevation
35 Localiser CMD 110.35 MHz 18 nm / 33 km 347.58° 345.58° - 12 ft / 4 m (AMSL)

Popular Alternatives